ASA647 KDEN-KSEA
Flight info
| Callsign | ASA647 |
|---|---|
| Flight time | 2h 16m |
| Altitude | 34000 |
| Route | DDRTH1 DDRTH IDA PDT CHINS5 |
| Aircraft | B739/M-SDE2E3FGHIRWXY/LB1 |
Departure
| Time | 2026-05-04 12:56 |
|---|---|
| Airport | Denver International Airport (KDEN) |
Arrival
| Time | 2026-05-04 15:12 |
|---|---|
| Airport | Seattle–Tacoma International Airport (KSEA) |
| Time | Latitude | Longitude | Altitude | Speed | Heading |
|---|---|---|---|---|---|
| 2026-05-04 12:05 | 39.85330 | -104.67157 | 5382 ft | 0 kts | 0° |
| 2026-05-04 12:41 | 39.85318 | -104.67157 | 5379 ft | 4 kts | 3° |
| 2026-05-04 12:41 | 39.85299 | -104.67160 | 5382 ft | 0 kts | 7° |
| 2026-05-04 12:45 | 39.85306 | -104.67152 | 5381 ft | 3 kts | 51° |
| 2026-05-04 12:46 | 39.85300 | -104.67127 | 5378 ft | 3 kts | 114° |
| 2026-05-04 12:46 | 39.85291 | -104.67101 | 5382 ft | 4 kts | 114° |
| 2026-05-04 12:46 | 39.85277 | -104.67046 | 5382 ft | 8 kts | 100° |
| 2026-05-04 12:46 | 39.85275 | -104.66954 | 5382 ft | 12 kts | 90° |
| 2026-05-04 12:47 | 39.85274 | -104.66838 | 5382 ft | 13 kts | 90° |
| 2026-05-04 12:47 | 39.85273 | -104.66722 | 5382 ft | 13 kts | 90° |
| 2026-05-04 12:47 | 39.85273 | -104.66635 | 5385 ft | 8 kts | 90° |
| 2026-05-04 12:47 | 39.85278 | -104.66568 | 5386 ft | 8 kts | 70° |
| 2026-05-04 12:48 | 39.85295 | -104.66492 | 5388 ft | 9 kts | 86° |
| 2026-05-04 12:48 | 39.85295 | -104.66408 | 5391 ft | 9 kts | 84° |
| 2026-05-04 12:48 | 39.85337 | -104.66355 | 5391 ft | 9 kts | 9° |
| 2026-05-04 12:48 | 39.85398 | -104.66354 | 5391 ft | 9 kts | 0° |
| 2026-05-04 12:49 | 39.85467 | -104.66353 | 5389 ft | 12 kts | 0° |
| 2026-05-04 12:49 | 39.85564 | -104.66352 | 5390 ft | 16 kts | 0° |
| 2026-05-04 12:49 | 39.85679 | -104.66351 | 5386 ft | 17 kts | 0° |
| 2026-05-04 12:49 | 39.85804 | -104.66349 | 5384 ft | 18 kts | 0° |
| 2026-05-04 12:50 | 39.85929 | -104.66347 | 5384 ft | 18 kts | 0° |
| 2026-05-04 12:50 | 39.86051 | -104.66346 | 5382 ft | 18 kts | 0° |
| 2026-05-04 12:50 | 39.86189 | -104.66344 | 5377 ft | 20 kts | 0° |
| 2026-05-04 12:50 | 39.86327 | -104.66343 | 5377 ft | 20 kts | 0° |
| 2026-05-04 12:51 | 39.86462 | -104.66341 | 5376 ft | 19 kts | 0° |
| 2026-05-04 12:51 | 39.86586 | -104.66340 | 5375 ft | 17 kts | 0° |
| 2026-05-04 12:51 | 39.86699 | -104.66338 | 5373 ft | 16 kts | 0° |
| 2026-05-04 12:51 | 39.86811 | -104.66336 | 5371 ft | 16 kts | 0° |
| 2026-05-04 12:52 | 39.86918 | -104.66335 | 5368 ft | 15 kts | 0° |
| 2026-05-04 12:52 | 39.87030 | -104.66334 | 5367 ft | 16 kts | 0° |
| 2026-05-04 12:52 | 39.87142 | -104.66333 | 5364 ft | 16 kts | 0° |
| 2026-05-04 12:52 | 39.87253 | -104.66331 | 5362 ft | 17 kts | 0° |
| 2026-05-04 12:53 | 39.87378 | -104.66329 | 5361 ft | 18 kts | 0° |
| 2026-05-04 12:53 | 39.87475 | -104.66299 | 5359 ft | 12 kts | 62° |
| 2026-05-04 12:53 | 39.87511 | -104.66218 | 5359 ft | 11 kts | 25° |
| 2026-05-04 12:53 | 39.87583 | -104.66211 | 5361 ft | 10 kts | 1° |
| 2026-05-04 12:54 | 39.87654 | -104.66210 | 5361 ft | 10 kts | 0° |
| 2026-05-04 12:54 | 39.87723 | -104.66210 | 5361 ft | 10 kts | 2° |
| 2026-05-04 12:54 | 39.87755 | -104.66149 | 5359 ft | 9 kts | 89° |
| 2026-05-04 12:54 | 39.87754 | -104.66051 | 5357 ft | 19 kts | 90° |
| 2026-05-04 12:55 | 39.87751 | -104.65582 | 5352 ft | 84 kts | 90° |
| 2026-05-04 12:55 | 39.87743 | -104.64553 | 5338 ft | 141 kts | 90° |
| 2026-05-04 12:55 | 39.87731 | -104.63063 | 5322 ft | 186 kts | 90° |
| 2026-05-04 12:55 | 39.87732 | -104.61277 | 5591 ft | 203 kts | 91° |
| 2026-05-04 12:56 | 39.87724 | -104.59426 | 6254 ft | 206 kts | 88° |
| 2026-05-04 12:56 | 39.88034 | -104.57572 | 6663 ft | 218 kts | 71° |
| 2026-05-04 12:56 | 39.88515 | -104.55594 | 6767 ft | 240 kts | 73° |
| 2026-05-04 12:56 | 39.88995 | -104.53416 | 6949 ft | 260 kts | 73° |
| 2026-05-04 12:57 | 39.89516 | -104.51057 | 7120 ft | 283 kts | 73° |
| 2026-05-04 12:57 | 39.90056 | -104.48531 | 7618 ft | 293 kts | 73° |
| 2026-05-04 12:57 | 39.90592 | -104.45963 | 8336 ft | 295 kts | 73° |
| 2026-05-04 12:57 | 39.91160 | -104.43390 | 9052 ft | 297 kts | 66° |
| 2026-05-04 12:58 | 39.92317 | -104.41197 | 9710 ft | 296 kts | 38° |
| 2026-05-04 12:58 | 39.94099 | -104.39901 | 10260 ft | 298 kts | 15° |
| 2026-05-04 12:58 | 39.96192 | -104.39392 | 10432 ft | 316 kts | 5° |
| 2026-05-04 12:58 | 39.98448 | -104.39067 | 10580 ft | 337 kts | 5° |
| 2026-05-04 12:59 | 40.00849 | -104.38700 | 10716 ft | 357 kts | 5° |
| 2026-05-04 12:59 | 40.03377 | -104.38310 | 10832 ft | 374 kts | 2° |
| 2026-05-04 12:59 | 40.05984 | -104.38716 | 10963 ft | 385 kts | 340° |
| 2026-05-04 12:59 | 40.08354 | -104.40348 | 11349 ft | 388 kts | 323° |
| 2026-05-04 13:00 | 40.10514 | -104.42460 | 11972 ft | 388 kts | 322° |
| 2026-05-04 13:00 | 40.12669 | -104.44583 | 12581 ft | 389 kts | 322° |
| 2026-05-04 13:00 | 40.14845 | -104.46697 | 13153 ft | 391 kts | 323° |
| 2026-05-04 13:00 | 40.17041 | -104.48805 | 13703 ft | 392 kts | 323° |
| 2026-05-04 13:01 | 40.19251 | -104.50916 | 14223 ft | 395 kts | 323° |
| 2026-05-04 13:01 | 40.21473 | -104.53055 | 14678 ft | 398 kts | 322° |
| 2026-05-04 13:01 | 40.23698 | -104.55215 | 15210 ft | 399 kts | 322° |
| 2026-05-04 13:01 | 40.25934 | -104.57388 | 15704 ft | 401 kts | 322° |
| 2026-05-04 13:02 | 40.28182 | -104.59574 | 16164 ft | 404 kts | 322° |
| 2026-05-04 13:02 | 40.30443 | -104.61772 | 16622 ft | 407 kts | 322° |
| 2026-05-04 13:02 | 40.32723 | -104.63984 | 17092 ft | 409 kts | 322° |
| 2026-05-04 13:02 | 40.35019 | -104.66211 | 17541 ft | 411 kts | 322° |
| 2026-05-04 13:03 | 40.37321 | -104.68446 | 17986 ft | 414 kts | 322° |
| 2026-05-04 13:03 | 40.39644 | -104.70703 | 18395 ft | 416 kts | 322° |
| 2026-05-04 13:03 | 40.41976 | -104.72971 | 18788 ft | 418 kts | 322° |
| 2026-05-04 13:03 | 40.44310 | -104.75244 | 19206 ft | 419 kts | 322° |
| 2026-05-04 13:04 | 40.46659 | -104.77534 | 19585 ft | 421 kts | 322° |
| 2026-05-04 13:04 | 40.49017 | -104.79835 | 19957 ft | 424 kts | 321° |
| 2026-05-04 13:04 | 40.51386 | -104.82149 | 20347 ft | 426 kts | 321° |
| 2026-05-04 13:04 | 40.53770 | -104.84479 | 20718 ft | 428 kts | 321° |
| 2026-05-04 13:05 | 40.56131 | -104.86789 | 21068 ft | 430 kts | 321° |
| 2026-05-04 13:05 | 40.58536 | -104.89144 | 21406 ft | 432 kts | 321° |
| 2026-05-04 13:05 | 40.60950 | -104.91511 | 21790 ft | 433 kts | 321° |
| 2026-05-04 13:05 | 40.63364 | -104.93878 | 22153 ft | 434 kts | 321° |
| 2026-05-04 13:06 | 40.65789 | -104.96260 | 22457 ft | 436 kts | 321° |
| 2026-05-04 13:06 | 40.68231 | -104.98660 | 22742 ft | 439 kts | 321° |
| 2026-05-04 13:06 | 40.70683 | -105.01073 | 23121 ft | 441 kts | 321° |
| 2026-05-04 13:06 | 40.73148 | -105.03500 | 23428 ft | 443 kts | 320° |
| 2026-05-04 13:07 | 40.75620 | -105.05940 | 23679 ft | 444 kts | 320° |
| 2026-05-04 13:07 | 40.77874 | -105.08697 | 23897 ft | 442 kts | 308° |
| 2026-05-04 13:07 | 40.79781 | -105.11873 | 24226 ft | 441 kts | 306° |
| 2026-05-04 13:07 | 40.81642 | -105.15089 | 24536 ft | 442 kts | 305° |
| 2026-05-04 13:08 | 40.83510 | -105.18320 | 24788 ft | 444 kts | 305° |
| 2026-05-04 13:08 | 40.85398 | -105.21561 | 25051 ft | 446 kts | 306° |
| 2026-05-04 13:08 | 40.87302 | -105.24799 | 25362 ft | 446 kts | 306° |
| 2026-05-04 13:08 | 40.89207 | -105.28013 | 25777 ft | 444 kts | 306° |
| 2026-05-04 13:09 | 40.91112 | -105.31212 | 26189 ft | 442 kts | 306° |
| 2026-05-04 13:09 | 40.93017 | -105.34408 | 26537 ft | 442 kts | 305° |
| 2026-05-04 13:09 | 40.94919 | -105.37600 | 26898 ft | 442 kts | 305° |
| 2026-05-04 13:09 | 40.96817 | -105.40788 | 27313 ft | 440 kts | 305° |
| 2026-05-04 13:10 | 40.98708 | -105.43966 | 27739 ft | 439 kts | 305° |
| 2026-05-04 13:10 | 41.00593 | -105.47139 | 28203 ft | 437 kts | 305° |
| 2026-05-04 13:10 | 41.02465 | -105.50295 | 28672 ft | 435 kts | 305° |
| 2026-05-04 13:10 | 41.04331 | -105.53444 | 29136 ft | 434 kts | 305° |
| 2026-05-04 13:11 | 41.06189 | -105.56583 | 29597 ft | 432 kts | 305° |
| 2026-05-04 13:11 | 41.08040 | -105.59714 | 30027 ft | 431 kts | 304° |
| 2026-05-04 13:11 | 41.09886 | -105.62840 | 30383 ft | 430 kts | 304° |
| 2026-05-04 13:11 | 41.11731 | -105.65967 | 30695 ft | 430 kts | 304° |
| 2026-05-04 13:12 | 41.13573 | -105.69093 | 30962 ft | 432 kts | 305° |
| 2026-05-04 13:12 | 41.15426 | -105.72242 | 31184 ft | 433 kts | 305° |
| 2026-05-04 13:12 | 41.17278 | -105.75390 | 31500 ft | 432 kts | 305° |
| 2026-05-04 13:12 | 41.19126 | -105.78534 | 31848 ft | 431 kts | 305° |
| 2026-05-04 13:13 | 41.20968 | -105.81671 | 32145 ft | 431 kts | 305° |
| 2026-05-04 13:13 | 41.22809 | -105.84811 | 32399 ft | 431 kts | 305° |
| 2026-05-04 13:13 | 41.24653 | -105.87959 | 32663 ft | 431 kts | 305° |
| 2026-05-04 13:13 | 41.26494 | -105.91105 | 32937 ft | 430 kts | 305° |
| 2026-05-04 13:14 | 41.28330 | -105.94245 | 33106 ft | 430 kts | 305° |
| 2026-05-04 13:14 | 41.30163 | -105.97385 | 33339 ft | 431 kts | 306° |
| 2026-05-04 13:14 | 41.32005 | -106.00543 | 33451 ft | 434 kts | 306° |
| 2026-05-04 13:14 | 41.33857 | -106.03722 | 33607 ft | 435 kts | 306° |
| 2026-05-04 13:15 | 41.35714 | -106.06911 | 33786 ft | 436 kts | 306° |
| 2026-05-04 13:15 | 41.39425 | -106.13295 | 33763 ft | 434 kts | 306° |
| 2026-05-04 13:16 | 41.43110 | -106.19648 | 33779 ft | 432 kts | 306° |
| 2026-05-04 13:16 | 41.46692 | -106.26061 | 33768 ft | 430 kts | 299° |
| 2026-05-04 13:17 | 41.49497 | -106.33063 | 33771 ft | 427 kts | 295° |
| 2026-05-04 13:17 | 41.52137 | -106.40162 | 33767 ft | 427 kts | 295° |
| 2026-05-04 13:18 | 41.54815 | -106.47242 | 33774 ft | 428 kts | 296° |
| 2026-05-04 13:18 | 41.57535 | -106.54313 | 33776 ft | 429 kts | 296° |
| 2026-05-04 13:19 | 41.60281 | -106.61412 | 33780 ft | 431 kts | 296° |
| 2026-05-04 13:19 | 41.62567 | -106.67327 | 33777 ft | 432 kts | 296° |
| 2026-05-04 13:20 | 41.65324 | -106.74476 | 33763 ft | 433 kts | 296° |
| 2026-05-04 13:20 | 41.68082 | -106.81649 | 33776 ft | 434 kts | 296° |
| 2026-05-04 13:21 | 41.70841 | -106.88841 | 33857 ft | 435 kts | 296° |
| 2026-05-04 13:21 | 41.73599 | -106.96051 | 33897 ft | 435 kts | 296° |
| 2026-05-04 13:22 | 41.76351 | -107.03261 | 33951 ft | 434 kts | 296° |
| 2026-05-04 13:22 | 41.79095 | -107.10469 | 33970 ft | 434 kts | 296° |
| 2026-05-04 13:23 | 41.81829 | -107.17670 | 33972 ft | 433 kts | 296° |
| 2026-05-04 13:23 | 41.84556 | -107.24869 | 33971 ft | 433 kts | 296° |
| 2026-05-04 13:24 | 41.87276 | -107.32068 | 33954 ft | 432 kts | 296° |
| 2026-05-04 13:24 | 41.89989 | -107.39269 | 33931 ft | 432 kts | 296° |
| 2026-05-04 13:25 | 41.94046 | -107.50066 | 33848 ft | 431 kts | 296° |
| 2026-05-04 13:25 | 41.96741 | -107.57262 | 33804 ft | 431 kts | 296° |
| 2026-05-04 13:26 | 41.99430 | -107.64460 | 33769 ft | 430 kts | 296° |
| 2026-05-04 13:26 | 42.02108 | -107.71647 | 33773 ft | 430 kts | 296° |
| 2026-05-04 13:27 | 42.04782 | -107.78840 | 33775 ft | 430 kts | 296° |
| 2026-05-04 13:27 | 42.07449 | -107.86033 | 33770 ft | 430 kts | 296° |
| 2026-05-04 13:28 | 42.10112 | -107.93235 | 33769 ft | 430 kts | 296° |
| 2026-05-04 13:28 | 42.12776 | -108.00455 | 33773 ft | 430 kts | 296° |
| 2026-05-04 13:29 | 42.15432 | -108.07675 | 33771 ft | 431 kts | 295° |
| 2026-05-04 13:29 | 42.18092 | -108.14921 | 33774 ft | 431 kts | 296° |
| 2026-05-04 13:30 | 42.20745 | -108.22170 | 33768 ft | 431 kts | 296° |
| 2026-05-04 13:30 | 42.23394 | -108.29424 | 33768 ft | 431 kts | 295° |
| 2026-05-04 13:31 | 42.26041 | -108.36692 | 33759 ft | 431 kts | 295° |
| 2026-05-04 13:31 | 42.28680 | -108.43956 | 33757 ft | 431 kts | 295° |
| 2026-05-04 13:32 | 42.31317 | -108.51234 | 33768 ft | 431 kts | 295° |
| 2026-05-04 13:32 | 42.33949 | -108.58517 | 33765 ft | 432 kts | 296° |
| 2026-05-04 13:33 | 42.36584 | -108.65826 | 33768 ft | 433 kts | 295° |
| 2026-05-04 13:33 | 42.39216 | -108.73148 | 33774 ft | 433 kts | 295° |
| 2026-05-04 13:34 | 42.41847 | -108.80484 | 33763 ft | 434 kts | 295° |
| 2026-05-04 13:34 | 42.44477 | -108.87838 | 33784 ft | 434 kts | 295° |
| 2026-05-04 13:35 | 42.48423 | -108.98909 | 33809 ft | 437 kts | 296° |
| 2026-05-04 13:36 | 42.51062 | -109.06337 | 33806 ft | 439 kts | 296° |
| 2026-05-04 13:36 | 42.53708 | -109.13805 | 33806 ft | 440 kts | 296° |
| 2026-05-04 13:37 | 42.56341 | -109.21253 | 33815 ft | 441 kts | 296° |
| 2026-05-04 13:37 | 42.59006 | -109.28814 | 33810 ft | 442 kts | 296° |
| 2026-05-04 13:38 | 42.61660 | -109.36365 | 33823 ft | 443 kts | 296° |
| 2026-05-04 13:38 | 42.64312 | -109.43931 | 33828 ft | 445 kts | 296° |
| 2026-05-04 13:39 | 42.66949 | -109.51474 | 33825 ft | 445 kts | 296° |
| 2026-05-04 13:39 | 42.69602 | -109.59083 | 33836 ft | 446 kts | 296° |
| 2026-05-04 13:40 | 42.72254 | -109.66714 | 33844 ft | 447 kts | 296° |
| 2026-05-04 13:40 | 42.73596 | -109.70580 | 34018 ft | 447 kts | 296° |
| 2026-05-04 13:40 | 42.74922 | -109.74407 | 34033 ft | 447 kts | 296° |
| 2026-05-04 13:41 | 42.77569 | -109.82064 | 34013 ft | 448 kts | 296° |
| 2026-05-04 13:41 | 42.80199 | -109.89691 | 34029 ft | 448 kts | 296° |
| 2026-05-04 13:42 | 42.84164 | -110.01234 | 33994 ft | 449 kts | 296° |
| 2026-05-04 13:42 | 42.86806 | -110.08949 | 33955 ft | 450 kts | 296° |
| 2026-05-04 13:43 | 42.89445 | -110.16679 | 33877 ft | 450 kts | 296° |
| 2026-05-04 13:43 | 42.92080 | -110.24420 | 33897 ft | 450 kts | 296° |
| 2026-05-04 13:44 | 42.94713 | -110.32176 | 33892 ft | 451 kts | 296° |
| 2026-05-04 13:44 | 42.97343 | -110.39944 | 33900 ft | 451 kts | 296° |
| 2026-05-04 13:45 | 42.99967 | -110.47720 | 33900 ft | 451 kts | 295° |
| 2026-05-04 13:45 | 43.02591 | -110.55513 | 33904 ft | 452 kts | 295° |
| 2026-05-04 13:46 | 43.05210 | -110.63318 | 33901 ft | 452 kts | 295° |
| 2026-05-04 13:46 | 43.07830 | -110.71148 | 33900 ft | 453 kts | 295° |
| 2026-05-04 13:47 | 43.10443 | -110.78980 | 33908 ft | 452 kts | 295° |
| 2026-05-04 13:47 | 43.13049 | -110.86811 | 33898 ft | 452 kts | 295° |
| 2026-05-04 13:48 | 43.15647 | -110.94644 | 33912 ft | 452 kts | 295° |
| 2026-05-04 13:48 | 43.18240 | -111.02483 | 33911 ft | 452 kts | 295° |
| 2026-05-04 13:49 | 43.20828 | -111.10328 | 33902 ft | 452 kts | 295° |
| 2026-05-04 13:49 | 43.23409 | -111.18177 | 33885 ft | 452 kts | 295° |
| 2026-05-04 13:50 | 43.25987 | -111.26040 | 33885 ft | 452 kts | 295° |
| 2026-05-04 13:50 | 43.28563 | -111.33919 | 33870 ft | 453 kts | 295° |
| 2026-05-04 13:51 | 43.31135 | -111.41807 | 33848 ft | 453 kts | 295° |
| 2026-05-04 13:51 | 43.33702 | -111.49707 | 33849 ft | 453 kts | 295° |
| 2026-05-04 13:52 | 43.37545 | -111.61576 | 33834 ft | 454 kts | 295° |
| 2026-05-04 13:53 | 43.40103 | -111.69504 | 33861 ft | 454 kts | 295° |
| 2026-05-04 13:53 | 43.42658 | -111.77449 | 33876 ft | 454 kts | 295° |
| 2026-05-04 13:54 | 43.46483 | -111.89386 | 33910 ft | 454 kts | 295° |
| 2026-05-04 13:55 | 43.50294 | -112.01334 | 33925 ft | 454 kts | 295° |
| 2026-05-04 13:55 | 43.54223 | -112.13200 | 33925 ft | 453 kts | 297° |
| 2026-05-04 13:56 | 43.57056 | -112.20959 | 33918 ft | 453 kts | 298° |
| 2026-05-04 13:57 | 43.61286 | -112.32609 | 33838 ft | 452 kts | 297° |
| 2026-05-04 13:58 | 43.66824 | -112.48163 | 33819 ft | 451 kts | 297° |
| 2026-05-04 13:58 | 43.70921 | -112.59753 | 33834 ft | 450 kts | 297° |
| 2026-05-04 13:59 | 43.73659 | -112.67524 | 33814 ft | 450 kts | 297° |
| 2026-05-04 14:00 | 43.77755 | -112.79187 | 33815 ft | 449 kts | 297° |
| 2026-05-04 14:00 | 43.81831 | -112.90843 | 33814 ft | 448 kts | 297° |
| 2026-05-04 14:01 | 43.84539 | -112.98614 | 33809 ft | 448 kts | 297° |
| 2026-05-04 14:02 | 43.88586 | -113.10270 | 33812 ft | 447 kts | 297° |
| 2026-05-04 14:02 | 43.90823 | -113.16734 | 33811 ft | 447 kts | 297° |
| 2026-05-04 14:03 | 43.93510 | -113.24519 | 33821 ft | 448 kts | 297° |
| 2026-05-04 14:03 | 43.96195 | -113.32320 | 33817 ft | 448 kts | 297° |
| 2026-05-04 14:04 | 44.00220 | -113.44056 | 33827 ft | 449 kts | 297° |
| 2026-05-04 14:04 | 44.02895 | -113.51887 | 33850 ft | 448 kts | 297° |
| 2026-05-04 14:05 | 44.06893 | -113.63630 | 33862 ft | 448 kts | 297° |
| 2026-05-04 14:06 | 44.09553 | -113.71474 | 33847 ft | 448 kts | 297° |
| 2026-05-04 14:06 | 44.12205 | -113.79314 | 33848 ft | 448 kts | 297° |
| 2026-05-04 14:07 | 44.14846 | -113.87145 | 33849 ft | 447 kts | 297° |
| 2026-05-04 14:07 | 44.17481 | -113.94984 | 33864 ft | 446 kts | 297° |
| 2026-05-04 14:08 | 44.20107 | -114.02814 | 33868 ft | 446 kts | 297° |
| 2026-05-04 14:08 | 44.22723 | -114.10642 | 33862 ft | 446 kts | 297° |
| 2026-05-04 14:09 | 44.26643 | -114.22411 | 33865 ft | 446 kts | 297° |
| 2026-05-04 14:10 | 44.30557 | -114.34214 | 33914 ft | 447 kts | 297° |
| 2026-05-04 14:10 | 44.33167 | -114.42112 | 33864 ft | 448 kts | 297° |
| 2026-05-04 14:11 | 44.35775 | -114.50031 | 33874 ft | 449 kts | 297° |
| 2026-05-04 14:11 | 44.39676 | -114.61921 | 33880 ft | 449 kts | 297° |
| 2026-05-04 14:12 | 44.42255 | -114.69810 | 33877 ft | 449 kts | 297° |
| 2026-05-04 14:13 | 44.46132 | -114.81715 | 33883 ft | 448 kts | 297° |
| 2026-05-04 14:13 | 44.48705 | -114.89645 | 33890 ft | 447 kts | 297° |
| 2026-05-04 14:14 | 44.51268 | -114.97568 | 33897 ft | 446 kts | 297° |
| 2026-05-04 14:14 | 44.55099 | -115.09456 | 33895 ft | 446 kts | 297° |
| 2026-05-04 14:15 | 44.60180 | -115.25304 | 33895 ft | 445 kts | 297° |
| 2026-05-04 14:16 | 44.63967 | -115.37182 | 33883 ft | 444 kts | 297° |
| 2026-05-04 14:17 | 44.67738 | -115.49062 | 33876 ft | 444 kts | 297° |
| 2026-05-04 14:18 | 44.71515 | -115.61012 | 33894 ft | 444 kts | 297° |
| 2026-05-04 14:19 | 44.76506 | -115.76893 | 33901 ft | 446 kts | 297° |
| 2026-05-04 14:19 | 44.79006 | -115.84884 | 33916 ft | 446 kts | 297° |
| 2026-05-04 14:20 | 44.81499 | -115.92880 | 33924 ft | 446 kts | 297° |
| 2026-05-04 14:20 | 44.83988 | -116.00886 | 33962 ft | 446 kts | 297° |
| 2026-05-04 14:21 | 44.87719 | -116.12931 | 33961 ft | 448 kts | 297° |
| 2026-05-04 14:21 | 44.90208 | -116.20998 | 33962 ft | 449 kts | 297° |
| 2026-05-04 14:22 | 44.92698 | -116.29096 | 33860 ft | 451 kts | 297° |
| 2026-05-04 14:22 | 44.95191 | -116.37229 | 33874 ft | 452 kts | 297° |
| 2026-05-04 14:23 | 44.98932 | -116.49483 | 33865 ft | 454 kts | 297° |
| 2026-05-04 14:24 | 45.01423 | -116.57678 | 33858 ft | 454 kts | 297° |
| 2026-05-04 14:24 | 45.03910 | -116.65883 | 33870 ft | 454 kts | 298° |
| 2026-05-04 14:25 | 45.06413 | -116.74166 | 33886 ft | 456 kts | 298° |
| 2026-05-04 14:25 | 45.10154 | -116.86596 | 33881 ft | 459 kts | 297° |
| 2026-05-04 14:26 | 45.12648 | -116.94921 | 33873 ft | 459 kts | 297° |
| 2026-05-04 14:26 | 45.15136 | -117.03254 | 33865 ft | 460 kts | 298° |
| 2026-05-04 14:27 | 45.17607 | -117.11555 | 33889 ft | 461 kts | 298° |
| 2026-05-04 14:27 | 45.20112 | -117.19996 | 33947 ft | 461 kts | 298° |
| 2026-05-04 14:28 | 45.22575 | -117.28328 | 33955 ft | 462 kts | 298° |
| 2026-05-04 14:28 | 45.25055 | -117.36741 | 33963 ft | 463 kts | 297° |
| 2026-05-04 14:29 | 45.30000 | -117.53609 | 33935 ft | 462 kts | 297° |
| 2026-05-04 14:30 | 45.32461 | -117.62045 | 33927 ft | 462 kts | 297° |
| 2026-05-04 14:31 | 45.36147 | -117.74731 | 33924 ft | 463 kts | 297° |
| 2026-05-04 14:32 | 45.41039 | -117.91675 | 33950 ft | 462 kts | 297° |
| 2026-05-04 14:32 | 45.43473 | -118.00147 | 33944 ft | 462 kts | 297° |
| 2026-05-04 14:33 | 45.45899 | -118.08621 | 33937 ft | 462 kts | 297° |
| 2026-05-04 14:33 | 45.48320 | -118.17104 | 33891 ft | 462 kts | 297° |
| 2026-05-04 14:34 | 45.50732 | -118.25590 | 33897 ft | 462 kts | 297° |
| 2026-05-04 14:34 | 45.53133 | -118.34066 | 33891 ft | 461 kts | 297° |
| 2026-05-04 14:35 | 45.55528 | -118.42547 | 33886 ft | 460 kts | 297° |
| 2026-05-04 14:35 | 45.57928 | -118.51076 | 33884 ft | 461 kts | 297° |
| 2026-05-04 14:36 | 45.60295 | -118.59515 | 33884 ft | 461 kts | 297° |
| 2026-05-04 14:36 | 45.62670 | -118.68016 | 33879 ft | 461 kts | 297° |
| 2026-05-04 14:37 | 45.65042 | -118.76536 | 33896 ft | 462 kts | 297° |
| 2026-05-04 14:37 | 45.67413 | -118.85078 | 33888 ft | 462 kts | 297° |
| 2026-05-04 14:38 | 45.69824 | -118.93582 | 33883 ft | 458 kts | 303° |
| 2026-05-04 14:38 | 45.71631 | -118.97236 | 33843 ft | 446 kts | 316° |
| 2026-05-04 14:38 | 45.73685 | -119.00553 | 33825 ft | 446 kts | 316° |
| 2026-05-04 14:39 | 45.77765 | -119.07256 | 33859 ft | 447 kts | 316° |
| 2026-05-04 14:39 | 45.81805 | -119.14038 | 33868 ft | 447 kts | 315° |
| 2026-05-04 14:40 | 45.87826 | -119.24258 | 33853 ft | 447 kts | 315° |
| 2026-05-04 14:40 | 45.91839 | -119.31093 | 33866 ft | 448 kts | 315° |
| 2026-05-04 14:41 | 45.95854 | -119.37944 | 33861 ft | 449 kts | 315° |
| 2026-05-04 14:42 | 46.03892 | -119.51708 | 33835 ft | 450 kts | 315° |
| 2026-05-04 14:42 | 46.07915 | -119.58622 | 33840 ft | 450 kts | 315° |
| 2026-05-04 14:43 | 46.11930 | -119.65541 | 33838 ft | 451 kts | 315° |
| 2026-05-04 14:43 | 46.15952 | -119.72490 | 33835 ft | 451 kts | 315° |
| 2026-05-04 14:44 | 46.19321 | -119.78320 | 33826 ft | 451 kts | 315° |
| 2026-05-04 14:44 | 46.23335 | -119.85288 | 33824 ft | 452 kts | 315° |
| 2026-05-04 14:45 | 46.27348 | -119.92269 | 33836 ft | 451 kts | 315° |
| 2026-05-04 14:45 | 46.31326 | -119.99207 | 33836 ft | 451 kts | 315° |
| 2026-05-04 14:46 | 46.35354 | -120.06250 | 33824 ft | 451 kts | 315° |
| 2026-05-04 14:46 | 46.39321 | -120.13204 | 33836 ft | 451 kts | 315° |
| 2026-05-04 14:47 | 46.43309 | -120.20214 | 33858 ft | 451 kts | 315° |
| 2026-05-04 14:47 | 46.47289 | -120.27229 | 33876 ft | 450 kts | 315° |
| 2026-05-04 14:48 | 46.51267 | -120.34256 | 33884 ft | 450 kts | 315° |
| 2026-05-04 14:48 | 46.55237 | -120.41288 | 33896 ft | 451 kts | 315° |
| 2026-05-04 14:49 | 46.59103 | -120.48485 | 33898 ft | 453 kts | 311° |
| 2026-05-04 14:49 | 46.62677 | -120.56064 | 33890 ft | 455 kts | 310° |
| 2026-05-04 14:50 | 46.66218 | -120.63655 | 33890 ft | 454 kts | 310° |
| 2026-05-04 14:50 | 46.69807 | -120.71240 | 33551 ft | 459 kts | 310° |
| 2026-05-04 14:51 | 46.71642 | -120.75096 | 32812 ft | 463 kts | 310° |
| 2026-05-04 14:51 | 46.73465 | -120.78940 | 31981 ft | 462 kts | 309° |
| 2026-05-04 14:51 | 46.75295 | -120.82806 | 31145 ft | 463 kts | 309° |
| 2026-05-04 14:51 | 46.77122 | -120.86669 | 30279 ft | 464 kts | 308° |
| 2026-05-04 14:52 | 46.78958 | -120.90557 | 29289 ft | 466 kts | 308° |
| 2026-05-04 14:52 | 46.80794 | -120.94451 | 28297 ft | 467 kts | 308° |
| 2026-05-04 14:52 | 46.82635 | -120.98362 | 27315 ft | 467 kts | 308° |
| 2026-05-04 14:52 | 46.84476 | -121.02277 | 26291 ft | 468 kts | 308° |
| 2026-05-04 14:53 | 46.86321 | -121.06206 | 25309 ft | 470 kts | 308° |
| 2026-05-04 14:53 | 46.88155 | -121.10120 | 24615 ft | 463 kts | 307° |
| 2026-05-04 14:53 | 46.89963 | -121.13987 | 23881 ft | 458 kts | 307° |
| 2026-05-04 14:53 | 46.91752 | -121.17817 | 23136 ft | 453 kts | 307° |
| 2026-05-04 14:54 | 46.93517 | -121.21599 | 22364 ft | 448 kts | 307° |
| 2026-05-04 14:54 | 46.95260 | -121.25338 | 21643 ft | 442 kts | 307° |
| 2026-05-04 14:54 | 46.96982 | -121.29036 | 20924 ft | 437 kts | 307° |
| 2026-05-04 14:54 | 46.98684 | -121.32694 | 20237 ft | 432 kts | 307° |
| 2026-05-04 14:55 | 47.00344 | -121.36271 | 20079 ft | 416 kts | 307° |
| 2026-05-04 14:55 | 47.01938 | -121.39714 | 19878 ft | 401 kts | 307° |
| 2026-05-04 14:55 | 47.03475 | -121.43033 | 19725 ft | 387 kts | 307° |
| 2026-05-04 14:55 | 47.04964 | -121.46249 | 19563 ft | 375 kts | 307° |
| 2026-05-04 14:56 | 47.06405 | -121.49366 | 19411 ft | 363 kts | 307° |
| 2026-05-04 14:56 | 47.07801 | -121.52388 | 19180 ft | 354 kts | 307° |
| 2026-05-04 14:56 | 47.09170 | -121.55359 | 18906 ft | 349 kts | 307° |
| 2026-05-04 14:56 | 47.10528 | -121.58306 | 18477 ft | 348 kts | 307° |
| 2026-05-04 14:57 | 47.11878 | -121.61240 | 18050 ft | 346 kts | 307° |
| 2026-05-04 14:57 | 47.13228 | -121.64175 | 17559 ft | 347 kts | 307° |
| 2026-05-04 14:57 | 47.14574 | -121.67103 | 17095 ft | 346 kts | 307° |
| 2026-05-04 14:57 | 47.15918 | -121.70035 | 16630 ft | 346 kts | 306° |
| 2026-05-04 14:58 | 47.17259 | -121.72963 | 16188 ft | 345 kts | 306° |
| 2026-05-04 14:58 | 47.18597 | -121.75886 | 15744 ft | 344 kts | 306° |
| 2026-05-04 14:58 | 47.19929 | -121.78798 | 15310 ft | 342 kts | 306° |
| 2026-05-04 14:58 | 47.21250 | -121.81692 | 14927 ft | 338 kts | 306° |
| 2026-05-04 14:59 | 47.22548 | -121.84538 | 14677 ft | 332 kts | 306° |
| 2026-05-04 14:59 | 47.23823 | -121.87338 | 14411 ft | 327 kts | 306° |
| 2026-05-04 14:59 | 47.26340 | -121.92869 | 13936 ft | 325 kts | 306° |
| 2026-05-04 15:00 | 47.27600 | -121.95639 | 13692 ft | 327 kts | 306° |
| 2026-05-04 15:00 | 47.28871 | -121.98438 | 13432 ft | 329 kts | 305° |
| 2026-05-04 15:00 | 47.30143 | -122.01243 | 13163 ft | 329 kts | 305° |
| 2026-05-04 15:01 | 47.32671 | -122.06827 | 12657 ft | 327 kts | 305° |
| 2026-05-04 15:01 | 47.33925 | -122.09601 | 12415 ft | 324 kts | 305° |
| 2026-05-04 15:01 | 47.35165 | -122.12347 | 12163 ft | 318 kts | 305° |
| 2026-05-04 15:01 | 47.36382 | -122.15028 | 11871 ft | 313 kts | 308° |
| 2026-05-04 15:02 | 47.37978 | -122.17148 | 11462 ft | 308 kts | 334° |
| 2026-05-04 15:02 | 47.39992 | -122.18094 | 11091 ft | 305 kts | 354° |
| 2026-05-04 15:02 | 47.42103 | -122.18295 | 10730 ft | 304 kts | 358° |
| 2026-05-04 15:02 | 47.44215 | -122.18407 | 10332 ft | 304 kts | 359° |
| 2026-05-04 15:03 | 47.46327 | -122.18475 | 9952 ft | 304 kts | 359° |
| 2026-05-04 15:03 | 47.48400 | -122.18528 | 9929 ft | 290 kts | 359° |
| 2026-05-04 15:03 | 47.50374 | -122.18582 | 9881 ft | 278 kts | 359° |
| 2026-05-04 15:03 | 47.52292 | -122.18644 | 9674 ft | 273 kts | 359° |
| 2026-05-04 15:04 | 47.54190 | -122.18713 | 9329 ft | 273 kts | 359° |
| 2026-05-04 15:04 | 47.56135 | -122.18791 | 8634 ft | 283 kts | 359° |
| 2026-05-04 15:04 | 47.58086 | -122.18871 | 8207 ft | 279 kts | 359° |
| 2026-05-04 15:04 | 47.59999 | -122.18950 | 7874 ft | 272 kts | 359° |
| 2026-05-04 15:05 | 47.61887 | -122.19028 | 7564 ft | 272 kts | 359° |
| 2026-05-04 15:05 | 47.63779 | -122.19105 | 7238 ft | 272 kts | 359° |
| 2026-05-04 15:05 | 47.65669 | -122.19182 | 6917 ft | 271 kts | 359° |
| 2026-05-04 15:05 | 47.67543 | -122.19317 | 6604 ft | 268 kts | 351° |
| 2026-05-04 15:06 | 47.69214 | -122.20400 | 6271 ft | 263 kts | 321° |
| 2026-05-04 15:06 | 47.70333 | -122.22489 | 5950 ft | 259 kts | 296° |
| 2026-05-04 15:06 | 47.70800 | -122.25032 | 5650 ft | 255 kts | 275° |
| 2026-05-04 15:07 | 47.69957 | -122.29877 | 5073 ft | 241 kts | 228° |
| 2026-05-04 15:07 | 47.68623 | -122.31236 | 4788 ft | 234 kts | 201° |
| 2026-05-04 15:07 | 47.67038 | -122.31679 | 4431 ft | 229 kts | 183° |
| 2026-05-04 15:07 | 47.65463 | -122.31719 | 4113 ft | 223 kts | 181° |
| 2026-05-04 15:08 | 47.63948 | -122.31682 | 3826 ft | 215 kts | 180° |
| 2026-05-04 15:08 | 47.62484 | -122.31663 | 3544 ft | 206 kts | 181° |
| 2026-05-04 15:08 | 47.61074 | -122.31668 | 3276 ft | 198 kts | 181° |
| 2026-05-04 15:08 | 47.59728 | -122.31678 | 3031 ft | 188 kts | 181° |
| 2026-05-04 15:09 | 47.58455 | -122.31689 | 2771 ft | 179 kts | 181° |
| 2026-05-04 15:09 | 47.57248 | -122.31701 | 2591 ft | 170 kts | 181° |
| 2026-05-04 15:09 | 47.56076 | -122.31710 | 2336 ft | 161 kts | 181° |
| 2026-05-04 15:10 | 47.53868 | -122.31727 | 1911 ft | 160 kts | 181° |
| 2026-05-04 15:10 | 47.52761 | -122.31737 | 1702 ft | 154 kts | 181° |
| 2026-05-04 15:10 | 47.50659 | -122.31756 | 1295 ft | 151 kts | 181° |
| 2026-05-04 15:11 | 47.49612 | -122.31762 | 1100 ft | 153 kts | 180° |
| 2026-05-04 15:11 | 47.48553 | -122.31771 | 892 ft | 153 kts | 180° |
| 2026-05-04 15:11 | 47.47495 | -122.31777 | 683 ft | 151 kts | 180° |
| 2026-05-04 15:11 | 47.46450 | -122.31789 | 469 ft | 149 kts | 180° |
| 2026-05-04 15:12 | 47.45474 | -122.31796 | 398 ft | 118 kts | 180° |
| 2026-05-04 15:12 | 47.44877 | -122.31801 | 390 ft | 57 kts | 179° |
| 2026-05-04 15:12 | 47.44615 | -122.31752 | 380 ft | 23 kts | 161° |
| 2026-05-04 15:12 | 47.44470 | -122.31645 | 374 ft | 23 kts | 150° |
| 2026-05-04 15:13 | 47.44351 | -122.31545 | 375 ft | 15 kts | 148° |
| 2026-05-04 15:13 | 47.44270 | -122.31449 | 377 ft | 15 kts | 129° |
| 2026-05-04 15:13 | 47.44229 | -122.31317 | 379 ft | 14 kts | 105° |
| 2026-05-04 15:13 | 47.44197 | -122.31186 | 382 ft | 13 kts | 117° |
| 2026-05-04 15:14 | 47.44139 | -122.31084 | 382 ft | 13 kts | 141° |
| 2026-05-04 15:14 | 47.44063 | -122.31017 | 380 ft | 13 kts | 150° |
| 2026-05-04 15:14 | 47.43987 | -122.30954 | 378 ft | 12 kts | 150° |
| 2026-05-04 15:14 | 47.43923 | -122.30875 | 378 ft | 12 kts | 125° |
| 2026-05-04 15:15 | 47.43901 | -122.30760 | 379 ft | 12 kts | 91° |
| 2026-05-04 15:15 | 47.43925 | -122.30654 | 380 ft | 11 kts | 36° |
| 2026-05-04 15:15 | 47.43989 | -122.30595 | 383 ft | 10 kts | 65° |
| 2026-05-04 15:16 | 47.44086 | -122.30542 | 385 ft | 8 kts | 0° |
| 2026-05-04 15:16 | 47.44151 | -122.30542 | 387 ft | 10 kts | 0° |
| 2026-05-04 15:16 | 47.44326 | -122.30542 | 392 ft | 14 kts | 360° |
| 2026-05-04 15:17 | 47.44420 | -122.30542 | 394 ft | 13 kts | 0° |
| 2026-05-04 15:17 | 47.44538 | -122.30538 | 398 ft | 4 kts | 3° |
| 2026-05-04 15:17 | 47.44566 | -122.30535 | 399 ft | 4 kts | 3° |
| 2026-05-04 15:18 | 47.44586 | -122.30533 | 400 ft | 2 kts | 5° |
| 2026-05-04 15:18 | 47.44596 | -122.30533 | 399 ft | 1 kts | 358° |
| 2026-05-04 15:18 | 47.44617 | -122.30535 | 401 ft | 5 kts | 356° |
| 2026-05-04 15:19 | 47.44737 | -122.30540 | 403 ft | 13 kts | 0° |
| 2026-05-04 15:19 | 47.44803 | -122.30515 | 406 ft | 9 kts | 64° |
| 2026-05-04 15:19 | 47.44731 | -122.30367 | 403 ft | 8 kts | 130° |
| 2026-05-04 15:20 | 47.44698 | -122.30368 | 404 ft | 4 kts | 218° |
| 2026-05-04 15:20 | 47.44684 | -122.30383 | 403 ft | 2 kts | 217° |
| 2026-05-04 15:20 | 47.44680 | -122.30389 | 401 ft | 0 kts | 218° |
| 2026-05-04 15:45 | 47.44680 | -122.30388 | 403 ft | 0 kts | 218° |